Overview Statistics Trail Chart Weather Telemetry Raw packets
 

This is the latest recevied weather packets stored in our database for station/object WC4PEM-4. If no packets are shown the sender has not sent any weather packets the latest 10 day(s).

<< 151 152 153 154 155 156 157 >>
Time Temp. Humidity Pressure Rain* Wind** Luminosity Snow
1787776893 32.78° C 58% 1013.9 hPa 0 mm - - -
1787776593 32.78° C 58% 1014.1 hPa 0 mm - - -
1787776293 33.33° C 59% 1014.3 hPa 0 mm - - -
1787775993 33.89° C 56% 1014.2 hPa 0 mm - - -
1787775693 34.44° C 56% 1014.1 hPa 0 mm - - -
1787775393 34.44° C 54% 1014.2 hPa 0 mm - - -
1787775093 35° C 52% 1014.2 hPa 0 mm - - -
1787774793 36.11° C 45% 1014.4 hPa 0 mm - - -
1787774493 35° C 49% 1014.2 hPa 0 mm - - -
1787774193 34.44° C 51% 1014.2 hPa 0 mm - - -
1787773893 34.44° C 51% 1014.4 hPa 0 mm - - -
1787773631 34.44° C 52% 1014.4 hPa 0 mm - - -
1787773593 34.44° C 52% 1014.4 hPa 0 mm - - -
1787773293 34.44° C 52% 1014.5 hPa 0 mm - - -
1787772993 34.44° C 50% 1014.6 hPa 0 mm - - -
1787772693 34.44° C 52% 1014.6 hPa 0 mm - - -
1787772393 34.44° C 50% 1014.7 hPa 0 mm - - -
1787772093 34.44° C 50% 1014.6 hPa 0 mm - - -
1787771793 34.44° C 51% 1014.7 hPa 0 mm - - -
1787771494 33.89° C 51% 1014.7 hPa 0 mm - - -
1787771193 33.89° C 51% 1014.7 hPa 0 mm - - -
1787770894 33.89° C 51% 1014.7 hPa 0 mm - - -
1787770593 34.44° C 51% 1014.8 hPa 0 mm - - -
1787770293 34.44° C 50% 1014.8 hPa 0 mm - - -
1787769993 33.89° C 54% 1014.8 hPa 0 mm - - -

* Rain latest hour (hover to see other rain measurements)
** Current wind speed in m/s (hover to see current wind gust speed)